sensor_id;sensor_type;location;lat;lon;timestamp;P1;durP1;ratioP1;P2;durP2;ratioP2
69523;SDS011;56723;42.694;23.286;2022-07-06T00:00:52;13.45;;;11.23;;
69523;SDS011;56723;42.694;23.286;2022-07-06T00:03:19;16.08;;;12.80;;
69523;SDS011;56723;42.694;23.286;2022-07-06T00:05:46;12.40;;;11.10;;
69523;SDS011;56723;42.694;23.286;2022-07-06T00:08:13;15.02;;;13.43;;
69523;SDS011;56723;42.694;23.286;2022-07-06T00:10:40;13.93;;;12.40;;
69523;SDS011;56723;42.694;23.286;2022-07-06T00:13:07;14.43;;;12.70;;
69523;SDS011;56723;42.694;23.286;2022-07-06T00:15:34;16.77;;;13.77;;
69523;SDS011;56723;42.694;23.286;2022-07-06T00:18:01;15.95;;;13.93;;
69523;SDS011;56723;42.694;23.286;2022-07-06T00:20:28;17.73;;;15.00;;
69523;SDS011;56723;42.694;23.286;2022-07-06T00:22:55;19.98;;;17.45;;
69523;SDS011;56723;42.694;23.286;2022-07-06T00:25:22;20.45;;;17.80;;
69523;SDS011;56723;42.694;23.286;2022-07-06T00:27:49;22.08;;;18.88;;
69523;SDS011;56723;42.694;23.286;2022-07-06T00:30:16;20.88;;;18.55;;
69523;SDS011;56723;42.694;23.286;2022-07-06T00:32:44;18.48;;;16.52;;
69523;SDS011;56723;42.694;23.286;2022-07-06T00:35:11;20.80;;;17.33;;
69523;SDS011;56723;42.694;23.286;2022-07-06T00:37:38;17.10;;;14.43;;
69523;SDS011;56723;42.694;23.286;2022-07-06T00:40:05;19.85;;;15.98;;
69523;SDS011;56723;42.694;23.286;2022-07-06T00:42:42;20.80;;;17.88;;
69523;SDS011;56723;42.694;23.286;2022-07-06T00:45:10;21.23;;;18.95;;
69523;SDS011;56723;42.694;23.286;2022-07-06T00:47:38;19.48;;;16.63;;
69523;SDS011;56723;42.694;23.286;2022-07-06T00:50:09;24.15;;;20.05;;
69523;SDS011;56723;42.694;23.286;2022-07-06T00:52:42;23.20;;;19.10;;
69523;SDS011;56723;42.694;23.286;2022-07-06T00:55:10;22.75;;;16.52;;
69523;SDS011;56723;42.694;23.286;2022-07-06T00:57:39;20.13;;;18.02;;
69523;SDS011;56723;42.694;23.286;2022-07-06T01:00:11;18.48;;;14.80;;
69523;SDS011;56723;42.694;23.286;2022-07-06T01:02:39;18.60;;;15.75;;
69523;SDS011;56723;42.694;23.286;2022-07-06T01:05:08;20.50;;;17.30;;
69523;SDS011;56723;42.694;23.286;2022-07-06T01:07:36;17.35;;;14.82;;
69523;SDS011;56723;42.694;23.286;2022-07-06T01:10:04;20.33;;;16.15;;
69523;SDS011;56723;42.694;23.286;2022-07-06T01:12:32;17.13;;;14.60;;
69523;SDS011;56723;42.694;23.286;2022-07-06T01:15:05;17.83;;;15.27;;
69523;SDS011;56723;42.694;23.286;2022-07-06T01:17:34;18.38;;;16.40;;
69523;SDS011;56723;42.694;23.286;2022-07-06T01:20:20;22.50;;;17.33;;
69523;SDS011;56723;42.694;23.286;2022-07-06T01:22:49;19.63;;;17.15;;
69523;SDS011;56723;42.694;23.286;2022-07-06T01:25:18;17.65;;;15.32;;
69523;SDS011;56723;42.694;23.286;2022-07-06T01:27:46;19.17;;;17.15;;
69523;SDS011;56723;42.694;23.286;2022-07-06T01:30:15;17.75;;;15.48;;
69523;SDS011;56723;42.694;23.286;2022-07-06T01:32:43;19.65;;;17.58;;
69523;SDS011;56723;42.694;23.286;2022-07-06T01:35:11;21.33;;;17.98;;
69523;SDS011;56723;42.694;23.286;2022-07-06T01:37:40;17.92;;;14.98;;
69523;SDS011;56723;42.694;23.286;2022-07-06T01:40:09;22.60;;;18.02;;
69523;SDS011;56723;42.694;23.286;2022-07-06T01:42:38;20.05;;;15.77;;
69523;SDS011;56723;42.694;23.286;2022-07-06T01:45:06;17.50;;;15.23;;
69523;SDS011;56723;42.694;23.286;2022-07-06T01:47:35;16.73;;;13.75;;
69523;SDS011;56723;42.694;23.286;2022-07-06T01:50:04;18.50;;;15.60;;
69523;SDS011;56723;42.694;23.286;2022-07-06T01:52:37;14.55;;;12.98;;
69523;SDS011;56723;42.694;23.286;2022-07-06T01:55:04;16.20;;;14.45;;
69523;SDS011;56723;42.694;23.286;2022-07-06T01:57:33;15.45;;;13.95;;
69523;SDS011;56723;42.694;23.286;2022-07-06T02:00:00;14.85;;;12.98;;
69523;SDS011;56723;42.694;23.286;2022-07-06T02:02:37;15.13;;;13.38;;
69523;SDS011;56723;42.694;23.286;2022-07-06T02:05:06;14.00;;;11.90;;
69523;SDS011;56723;42.694;23.286;2022-07-06T02:07:34;15.38;;;13.68;;
69523;SDS011;56723;42.694;23.286;2022-07-06T02:10:02;14.52;;;13.07;;
69523;SDS011;56723;42.694;23.286;2022-07-06T02:12:30;15.63;;;12.67;;
69523;SDS011;56723;42.694;23.286;2022-07-06T02:14:57;14.85;;;12.55;;
69523;SDS011;56723;42.694;23.286;2022-07-06T02:17:24;15.80;;;12.73;;
69523;SDS011;56723;42.694;23.286;2022-07-06T02:19:51;17.15;;;13.68;;
69523;SDS011;56723;42.694;23.286;2022-07-06T02:22:17;13.75;;;12.27;;
69523;SDS011;56723;42.694;23.286;2022-07-06T02:24:44;13.55;;;12.15;;
69523;SDS011;56723;42.694;23.286;2022-07-06T02:27:12;11.80;;;10.70;;
69523;SDS011;56723;42.694;23.286;2022-07-06T02:29:40;9.55;;;8.57;;
69523;SDS011;56723;42.694;23.286;2022-07-06T02:32:07;12.13;;;10.00;;
69523;SDS011;56723;42.694;23.286;2022-07-06T02:34:34;12.45;;;10.50;;
69523;SDS011;56723;42.694;23.286;2022-07-06T02:37:01;11.95;;;10.57;;
69523;SDS011;56723;42.694;23.286;2022-07-06T02:39:29;9.68;;;8.77;;
69523;SDS011;56723;42.694;23.286;2022-07-06T02:41:56;9.95;;;8.98;;
69523;SDS011;56723;42.694;23.286;2022-07-06T02:44:24;9.50;;;8.55;;
69523;SDS011;56723;42.694;23.286;2022-07-06T02:46:52;15.25;;;13.40;;
69523;SDS011;56723;42.694;23.286;2022-07-06T02:49:19;24.65;;;20.33;;
69523;SDS011;56723;42.694;23.286;2022-07-06T02:51:47;10.93;;;9.77;;
69523;SDS011;56723;42.694;23.286;2022-07-06T02:54:14;11.57;;;10.27;;
69523;SDS011;56723;42.694;23.286;2022-07-06T02:56:42;11.32;;;10.15;;
69523;SDS011;56723;42.694;23.286;2022-07-06T02:59:10;13.75;;;10.32;;
69523;SDS011;56723;42.694;23.286;2022-07-06T03:01:41;11.70;;;10.18;;
69523;SDS011;56723;42.694;23.286;2022-07-06T03:04:09;10.75;;;9.65;;
69523;SDS011;56723;42.694;23.286;2022-07-06T03:06:36;12.65;;;8.75;;
69523;SDS011;56723;42.694;23.286;2022-07-06T03:09:03;10.85;;;9.75;;
69523;SDS011;56723;42.694;23.286;2022-07-06T03:11:30;13.35;;;10.48;;
69523;SDS011;56723;42.694;23.286;2022-07-06T03:13:57;10.55;;;9.45;;
69523;SDS011;56723;42.694;23.286;2022-07-06T03:16:25;10.63;;;8.55;;
69523;SDS011;56723;42.694;23.286;2022-07-06T03:18:52;9.70;;;8.18;;
69523;SDS011;56723;42.694;23.286;2022-07-06T03:21:20;10.77;;;8.43;;
69523;SDS011;56723;42.694;23.286;2022-07-06T03:23:47;10.75;;;9.25;;
69523;SDS011;56723;42.694;23.286;2022-07-06T03:26:14;13.65;;;9.40;;
69523;SDS011;56723;42.694;23.286;2022-07-06T03:28:41;9.13;;;8.02;;
69523;SDS011;56723;42.694;23.286;2022-07-06T03:31:08;16.20;;;10.93;;
69523;SDS011;56723;42.694;23.286;2022-07-06T03:33:36;11.77;;;8.05;;
69523;SDS011;56723;42.694;23.286;2022-07-06T03:36:03;10.50;;;7.93;;
69523;SDS011;56723;42.694;23.286;2022-07-06T03:38:33;9.05;;;6.95;;
69523;SDS011;56723;42.694;23.286;2022-07-06T03:41:01;9.20;;;8.07;;
69523;SDS011;56723;42.694;23.286;2022-07-06T03:43:29;10.40;;;8.52;;
69523;SDS011;56723;42.694;23.286;2022-07-06T03:45:57;8.98;;;7.25;;
69523;SDS011;56723;42.694;23.286;2022-07-06T03:48:25;11.15;;;7.30;;
69523;SDS011;56723;42.694;23.286;2022-07-06T03:50:52;10.52;;;8.05;;
69523;SDS011;56723;42.694;23.286;2022-07-06T03:53:21;7.53;;;6.10;;
69523;SDS011;56723;42.694;23.286;2022-07-06T03:55:48;9.13;;;6.22;;
69523;SDS011;56723;42.694;23.286;2022-07-06T03:58:36;10.68;;;6.47;;
69523;SDS011;56723;42.694;23.286;2022-07-06T04:01:03;9.73;;;7.22;;
69523;SDS011;56723;42.694;23.286;2022-07-06T04:03:30;11.10;;;7.10;;
69523;SDS011;56723;42.694;23.286;2022-07-06T04:06:01;7.47;;;6.47;;
69523;SDS011;56723;42.694;23.286;2022-07-06T04:08:28;8.00;;;6.90;;
69523;SDS011;56723;42.694;23.286;2022-07-06T04:10:57;8.30;;;5.68;;
69523;SDS011;56723;42.694;23.286;2022-07-06T04:13:24;9.82;;;6.38;;
69523;SDS011;56723;42.694;23.286;2022-07-06T04:15:54;11.15;;;6.63;;
69523;SDS011;56723;42.694;23.286;2022-07-06T04:18:21;8.18;;;5.90;;
69523;SDS011;56723;42.694;23.286;2022-07-06T04:20:52;6.57;;;5.57;;
69523;SDS011;56723;42.694;23.286;2022-07-06T04:23:19;7.03;;;6.07;;
69523;SDS011;56723;42.694;23.286;2022-07-06T04:25:47;9.32;;;6.30;;
69523;SDS011;56723;42.694;23.286;2022-07-06T04:28:14;9.93;;;6.65;;
69523;SDS011;56723;42.694;23.286;2022-07-06T04:30:41;7.90;;;6.60;;
69523;SDS011;56723;42.694;23.286;2022-07-06T04:33:12;10.35;;;6.95;;
69523;SDS011;56723;42.694;23.286;2022-07-06T04:35:41;8.82;;;5.97;;
69523;SDS011;56723;42.694;23.286;2022-07-06T04:38:08;8.75;;;6.47;;
69523;SDS011;56723;42.694;23.286;2022-07-06T04:40:35;8.70;;;6.55;;
69523;SDS011;56723;42.694;23.286;2022-07-06T04:43:07;9.55;;;6.60;;
69523;SDS011;56723;42.694;23.286;2022-07-06T04:45:35;8.65;;;7.38;;
69523;SDS011;56723;42.694;23.286;2022-07-06T04:48:02;10.73;;;8.27;;
69523;SDS011;56723;42.694;23.286;2022-07-06T04:50:30;13.15;;;9.45;;
69523;SDS011;56723;42.694;23.286;2022-07-06T04:53:07;12.32;;;10.43;;
69523;SDS011;56723;42.694;23.286;2022-07-06T04:55:35;10.88;;;9.75;;
69523;SDS011;56723;42.694;23.286;2022-07-06T04:58:02;11.70;;;10.00;;
69523;SDS011;56723;42.694;23.286;2022-07-06T05:00:30;14.57;;;11.75;;
69523;SDS011;56723;42.694;23.286;2022-07-06T05:02:57;18.10;;;12.75;;
69523;SDS011;56723;42.694;23.286;2022-07-06T05:05:26;16.00;;;13.43;;
69523;SDS011;56723;42.694;23.286;2022-07-06T05:07:53;16.50;;;13.18;;
69523;SDS011;56723;42.694;23.286;2022-07-06T05:10:20;17.52;;;13.77;;
69523;SDS011;56723;42.694;23.286;2022-07-06T05:12:51;18.60;;;14.45;;
69523;SDS011;56723;42.694;23.286;2022-07-06T05:15:18;18.98;;;13.98;;
69523;SDS011;56723;42.694;23.286;2022-07-06T05:17:45;17.00;;;14.13;;
69523;SDS011;56723;42.694;23.286;2022-07-06T05:20:13;18.25;;;13.27;;
69523;SDS011;56723;42.694;23.286;2022-07-06T05:22:43;16.05;;;13.57;;
69523;SDS011;56723;42.694;23.286;2022-07-06T05:25:15;17.45;;;14.02;;
69523;SDS011;56723;42.694;23.286;2022-07-06T05:27:42;16.33;;;13.73;;
69523;SDS011;56723;42.694;23.286;2022-07-06T05:30:10;17.55;;;13.88;;
69523;SDS011;56723;42.694;23.286;2022-07-06T05:32:38;16.75;;;12.15;;
69523;SDS011;56723;42.694;23.286;2022-07-06T05:35:05;16.63;;;13.18;;
69523;SDS011;56723;42.694;23.286;2022-07-06T05:37:53;18.00;;;12.50;;
69523;SDS011;56723;42.694;23.286;2022-07-06T05:40:20;16.90;;;12.13;;
69523;SDS011;56723;42.694;23.286;2022-07-06T05:42:48;14.07;;;11.10;;
69523;SDS011;56723;42.694;23.286;2022-07-06T05:45:15;12.35;;;10.52;;
69523;SDS011;56723;42.694;23.286;2022-07-06T05:47:43;16.75;;;12.25;;
69523;SDS011;56723;42.694;23.286;2022-07-06T05:50:31;12.25;;;10.07;;
69523;SDS011;56723;42.694;23.286;2022-07-06T05:52:59;11.38;;;9.75;;
69523;SDS011;56723;42.694;23.286;2022-07-06T05:55:42;13.10;;;11.43;;
69523;SDS011;56723;42.694;23.286;2022-07-06T05:58:09;14.88;;;11.35;;
69523;SDS011;56723;42.694;23.286;2022-07-06T06:00:37;19.27;;;12.35;;
69523;SDS011;56723;42.694;23.286;2022-07-06T06:03:10;16.13;;;11.32;;
69523;SDS011;56723;42.694;23.286;2022-07-06T06:05:37;13.88;;;10.98;;
69523;SDS011;56723;42.694;23.286;2022-07-06T06:08:07;12.05;;;9.73;;
69523;SDS011;56723;42.694;23.286;2022-07-06T06:10:34;11.38;;;10.18;;
69523;SDS011;56723;42.694;23.286;2022-07-06T06:13:05;12.27;;;11.00;;
69523;SDS011;56723;42.694;23.286;2022-07-06T06:15:33;15.13;;;10.77;;
69523;SDS011;56723;42.694;23.286;2022-07-06T06:18:03;12.75;;;10.10;;
69523;SDS011;56723;42.694;23.286;2022-07-06T06:20:33;12.90;;;10.30;;
69523;SDS011;56723;42.694;23.286;2022-07-06T06:23:00;12.52;;;9.30;;
69523;SDS011;56723;42.694;23.286;2022-07-06T06:25:28;18.17;;;12.30;;
69523;SDS011;56723;42.694;23.286;2022-07-06T06:28:01;14.75;;;11.68;;
69523;SDS011;56723;42.694;23.286;2022-07-06T06:30:29;14.52;;;12.80;;
69523;SDS011;56723;42.694;23.286;2022-07-06T06:33:06;12.68;;;11.30;;
69523;SDS011;56723;42.694;23.286;2022-07-06T06:38:02;13.70;;;12.18;;
69523;SDS011;56723;42.694;23.286;2022-07-06T06:40:30;13.90;;;11.45;;
69523;SDS011;56723;42.694;23.286;2022-07-06T06:42:57;13.27;;;10.73;;
69523;SDS011;56723;42.694;23.286;2022-07-06T06:45:24;13.38;;;11.88;;
69523;SDS011;56723;42.694;23.286;2022-07-06T06:47:51;14.93;;;11.75;;
69523;SDS011;56723;42.694;23.286;2022-07-06T06:50:18;12.75;;;11.18;;
69523;SDS011;56723;42.694;23.286;2022-07-06T06:52:45;14.90;;;12.68;;
69523;SDS011;56723;42.694;23.286;2022-07-06T06:55:12;13.35;;;11.38;;
69523;SDS011;56723;42.694;23.286;2022-07-06T06:57:39;14.27;;;12.23;;
69523;SDS011;56723;42.694;23.286;2022-07-06T07:00:06;12.82;;;10.95;;
69523;SDS011;56723;42.694;23.286;2022-07-06T07:02:34;16.17;;;12.13;;
69523;SDS011;56723;42.694;23.286;2022-07-06T07:05:01;13.07;;;11.70;;
69523;SDS011;56723;42.694;23.286;2022-07-06T07:07:29;14.23;;;11.10;;
69523;SDS011;56723;42.694;23.286;2022-07-06T07:09:56;17.23;;;12.40;;
69523;SDS011;56723;42.694;23.286;2022-07-06T07:12:23;14.93;;;11.55;;
69523;SDS011;56723;42.694;23.286;2022-07-06T07:14:50;14.95;;;11.73;;
69523;SDS011;56723;42.694;23.286;2022-07-06T07:17:17;13.43;;;10.93;;
69523;SDS011;56723;42.694;23.286;2022-07-06T07:19:44;14.45;;;12.45;;
69523;SDS011;56723;42.694;23.286;2022-07-06T07:22:11;16.95;;;13.60;;
69523;SDS011;56723;42.694;23.286;2022-07-06T07:24:38;15.63;;;13.93;;
69523;SDS011;56723;42.694;23.286;2022-07-06T07:27:05;16.00;;;12.85;;
69523;SDS011;56723;42.694;23.286;2022-07-06T07:29:32;14.55;;;11.90;;
69523;SDS011;56723;42.694;23.286;2022-07-06T07:31:59;14.88;;;12.25;;
69523;SDS011;56723;42.694;23.286;2022-07-06T07:34:26;13.10;;;11.73;;
69523;SDS011;56723;42.694;23.286;2022-07-06T07:36:53;14.05;;;12.52;;
69523;SDS011;56723;42.694;23.286;2022-07-06T07:39:20;13.05;;;11.65;;
69523;SDS011;56723;42.694;23.286;2022-07-06T07:41:47;16.60;;;13.88;;
69523;SDS011;56723;42.694;23.286;2022-07-06T07:44:16;14.25;;;11.68;;
69523;SDS011;56723;42.694;23.286;2022-07-06T07:46:44;17.10;;;13.17;;
69523;SDS011;56723;42.694;23.286;2022-07-06T07:49:12;14.25;;;12.57;;
69523;SDS011;56723;42.694;23.286;2022-07-06T07:51:47;18.08;;;13.15;;
69523;SDS011;56723;42.694;23.286;2022-07-06T07:54:14;14.25;;;12.82;;
69523;SDS011;56723;42.694;23.286;2022-07-06T07:56:42;16.05;;;13.05;;
69523;SDS011;56723;42.694;23.286;2022-07-06T07:59:09;13.23;;;11.82;;
69523;SDS011;56723;42.694;23.286;2022-07-06T08:01:37;12.75;;;11.25;;
69523;SDS011;56723;42.694;23.286;2022-07-06T08:04:05;15.40;;;12.20;;
69523;SDS011;56723;42.694;23.286;2022-07-06T08:06:32;15.27;;;12.50;;
69523;SDS011;56723;42.694;23.286;2022-07-06T08:08:59;13.60;;;11.77;;
69523;SDS011;56723;42.694;23.286;2022-07-06T08:11:26;11.93;;;10.82;;
69523;SDS011;56723;42.694;23.286;2022-07-06T08:13:53;13.27;;;11.98;;
69523;SDS011;56723;42.694;23.286;2022-07-06T08:16:20;12.05;;;10.82;;
69523;SDS011;56723;42.694;23.286;2022-07-06T08:18:47;12.35;;;11.07;;
69523;SDS011;56723;42.694;23.286;2022-07-06T08:21:14;13.60;;;11.75;;
69523;SDS011;56723;42.694;23.286;2022-07-06T08:23:51;11.73;;;10.52;;
69523;SDS011;56723;42.694;23.286;2022-07-06T08:26:19;13.68;;;10.73;;
69523;SDS011;56723;42.694;23.286;2022-07-06T08:28:47;12.25;;;11.05;;
69523;SDS011;56723;42.694;23.286;2022-07-06T08:31:14;14.10;;;11.65;;
69523;SDS011;56723;42.694;23.286;2022-07-06T08:34:01;11.30;;;10.10;;
69523;SDS011;56723;42.694;23.286;2022-07-06T08:36:29;11.73;;;10.50;;
69523;SDS011;56723;42.694;23.286;2022-07-06T08:38:56;11.82;;;10.45;;
69523;SDS011;56723;42.694;23.286;2022-07-06T08:41:24;10.57;;;9.00;;
69523;SDS011;56723;42.694;23.286;2022-07-06T08:43:55;11.25;;;9.38;;
69523;SDS011;56723;42.694;23.286;2022-07-06T08:46:22;13.00;;;10.30;;
69523;SDS011;56723;42.694;23.286;2022-07-06T08:48:49;11.85;;;10.38;;
69523;SDS011;56723;42.694;23.286;2022-07-06T08:51:18;12.90;;;11.38;;
69523;SDS011;56723;42.694;23.286;2022-07-06T08:53:55;13.45;;;11.50;;
69523;SDS011;56723;42.694;23.286;2022-07-06T08:56:23;13.13;;;10.43;;
69523;SDS011;56723;42.694;23.286;2022-07-06T08:58:52;12.32;;;11.02;;
69523;SDS011;56723;42.694;23.286;2022-07-06T09:01:21;11.68;;;10.48;;
69523;SDS011;56723;42.694;23.286;2022-07-06T09:03:49;10.77;;;9.67;;
69523;SDS011;56723;42.694;23.286;2022-07-06T09:06:17;11.07;;;9.93;;
69523;SDS011;56723;42.694;23.286;2022-07-06T09:08:49;13.52;;;12.13;;
69523;SDS011;56723;42.694;23.286;2022-07-06T09:11:23;12.40;;;11.07;;
69523;SDS011;56723;42.694;23.286;2022-07-06T09:13:52;13.65;;;10.60;;
69523;SDS011;56723;42.694;23.286;2022-07-06T09:16:24;11.32;;;10.15;;
69523;SDS011;56723;42.694;23.286;2022-07-06T09:19:08;10.57;;;8.93;;
69523;SDS011;56723;42.694;23.286;2022-07-06T09:21:37;13.75;;;10.63;;
69523;SDS011;56723;42.694;23.286;2022-07-06T09:24:06;12.80;;;10.10;;
69523;SDS011;56723;42.694;23.286;2022-07-06T09:26:36;12.00;;;10.60;;
69523;SDS011;56723;42.694;23.286;2022-07-06T09:29:04;12.85;;;11.00;;
69523;SDS011;56723;42.694;23.286;2022-07-06T09:31:32;12.88;;;10.98;;
69523;SDS011;56723;42.694;23.286;2022-07-06T09:34:06;11.18;;;10.07;;
69523;SDS011;56723;42.694;23.286;2022-07-06T09:36:43;11.43;;;9.88;;
69523;SDS011;56723;42.694;23.286;2022-07-06T09:39:25;12.98;;;11.63;;
69523;SDS011;56723;42.694;23.286;2022-07-06T09:41:58;13.68;;;12.35;;
69523;SDS011;56723;42.694;23.286;2022-07-06T09:44:27;16.08;;;14.52;;
69523;SDS011;56723;42.694;23.286;2022-07-06T09:47:00;14.20;;;12.70;;
69523;SDS011;56723;42.694;23.286;2022-07-06T09:49:29;14.23;;;12.73;;
69523;SDS011;56723;42.694;23.286;2022-07-06T09:51:58;13.60;;;12.30;;
69523;SDS011;56723;42.694;23.286;2022-07-06T09:54:26;13.70;;;12.30;;
69523;SDS011;56723;42.694;23.286;2022-07-06T09:56:54;13.80;;;12.40;;
69523;SDS011;56723;42.694;23.286;2022-07-06T09:59:23;16.80;;;15.07;;
69523;SDS011;56723;42.694;23.286;2022-07-06T10:01:58;13.70;;;12.30;;
69523;SDS011;56723;42.694;23.286;2022-07-06T10:04:27;16.00;;;11.80;;
69523;SDS011;56723;42.694;23.286;2022-07-06T10:06:55;16.98;;;14.25;;
69523;SDS011;56723;42.694;23.286;2022-07-06T10:09:24;15.80;;;12.13;;
69523;SDS011;56723;42.694;23.286;2022-07-06T10:11:57;15.55;;;13.00;;
69523;SDS011;56723;42.694;23.286;2022-07-06T10:14:27;15.98;;;14.32;;
69523;SDS011;56723;42.694;23.286;2022-07-06T10:16:56;14.60;;;13.00;;
69523;SDS011;56723;42.694;23.286;2022-07-06T10:21:52;14.57;;;13.18;;
69523;SDS011;56723;42.694;23.286;2022-07-06T10:24:20;14.60;;;13.18;;
69523;SDS011;56723;42.694;23.286;2022-07-06T10:26:48;14.18;;;12.70;;
69523;SDS011;56723;42.694;23.286;2022-07-06T10:29:15;15.02;;;13.52;;
69523;SDS011;56723;42.694;23.286;2022-07-06T10:31:46;14.05;;;12.57;;
69523;SDS011;56723;42.694;23.286;2022-07-06T10:34:15;13.10;;;11.80;;
69523;SDS011;56723;42.694;23.286;2022-07-06T10:36:48;16.77;;;12.30;;
69523;SDS011;56723;42.694;23.286;2022-07-06T10:39:36;12.93;;;11.57;;
69523;SDS011;56723;42.694;23.286;2022-07-06T10:45:09;11.40;;;10.20;;
69523;SDS011;56723;42.694;23.286;2022-07-06T10:47:39;12.05;;;10.85;;
69523;SDS011;56723;42.694;23.286;2022-07-06T10:50:07;13.90;;;12.50;;
69523;SDS011;56723;42.694;23.286;2022-07-06T10:52:52;15.68;;;11.52;;
69523;SDS011;56723;42.694;23.286;2022-07-06T10:58:01;13.05;;;10.95;;
69523;SDS011;56723;42.694;23.286;2022-07-06T11:06:22;14.02;;;12.65;;
69523;SDS011;56723;42.694;23.286;2022-07-06T11:08:51;14.27;;;12.98;;
69523;SDS011;56723;42.694;23.286;2022-07-06T11:11:23;14.07;;;12.77;;
69523;SDS011;56723;42.694;23.286;2022-07-06T11:19:15;14.52;;;12.05;;
69523;SDS011;56723;42.694;23.286;2022-07-06T11:21:54;13.00;;;11.85;;
69523;SDS011;56723;42.694;23.286;2022-07-06T11:24:27;12.82;;;11.45;;
69523;SDS011;56723;42.694;23.286;2022-07-06T11:26:56;11.88;;;10.88;;
69523;SDS011;56723;42.694;23.286;2022-07-06T11:31:56;13.70;;;12.38;;
69523;SDS011;56723;42.694;23.286;2022-07-06T11:34:26;13.32;;;12.13;;
69523;SDS011;56723;42.694;23.286;2022-07-06T11:36:56;14.48;;;13.05;;
69523;SDS011;56723;42.694;23.286;2022-07-06T11:39:33;12.65;;;11.43;;
69523;SDS011;56723;42.694;23.286;2022-07-06T11:42:06;13.27;;;12.10;;
69523;SDS011;56723;42.694;23.286;2022-07-06T11:44:35;14.15;;;12.85;;
69523;SDS011;56723;42.694;23.286;2022-07-06T11:47:03;12.77;;;11.55;;
69523;SDS011;56723;42.694;23.286;2022-07-06T11:49:33;12.23;;;11.13;;
69523;SDS011;56723;42.694;23.286;2022-07-06T11:52:05;13.98;;;12.68;;
69523;SDS011;56723;42.694;23.286;2022-07-06T11:54:34;13.82;;;11.98;;
69523;SDS011;56723;42.694;23.286;2022-07-06T11:57:01;12.48;;;11.25;;
69523;SDS011;56723;42.694;23.286;2022-07-06T11:59:33;11.70;;;10.60;;
69523;SDS011;56723;42.694;23.286;2022-07-06T12:02:06;12.32;;;11.23;;
69523;SDS011;56723;42.694;23.286;2022-07-06T12:04:37;12.30;;;11.07;;
69523;SDS011;56723;42.694;23.286;2022-07-06T12:07:07;11.60;;;10.55;;
69523;SDS011;56723;42.694;23.286;2022-07-06T12:09:40;11.70;;;10.65;;
69523;SDS011;56723;42.694;23.286;2022-07-06T12:12:09;11.23;;;10.32;;
69523;SDS011;56723;42.694;23.286;2022-07-06T12:14:37;10.82;;;9.07;;
69523;SDS011;56723;42.694;23.286;2022-07-06T12:17:07;9.30;;;8.50;;
69523;SDS011;56723;42.694;23.286;2022-07-06T12:19:36;10.02;;;9.10;;
69523;SDS011;56723;42.694;23.286;2022-07-06T12:22:04;10.25;;;8.90;;
69523;SDS011;56723;42.694;23.286;2022-07-06T12:24:33;12.05;;;9.32;;
69523;SDS011;56723;42.694;23.286;2022-07-06T12:27:19;9.85;;;8.77;;
69523;SDS011;56723;42.694;23.286;2022-07-06T12:29:47;9.77;;;8.95;;
69523;SDS011;56723;42.694;23.286;2022-07-06T12:32:15;9.97;;;9.03;;
69523;SDS011;56723;42.694;23.286;2022-07-06T12:34:46;9.75;;;8.95;;
69523;SDS011;56723;42.694;23.286;2022-07-06T12:37:13;8.60;;;7.85;;
69523;SDS011;56723;42.694;23.286;2022-07-06T12:39:41;9.05;;;8.05;;
69523;SDS011;56723;42.694;23.286;2022-07-06T12:42:13;7.70;;;7.07;;
69523;SDS011;56723;42.694;23.286;2022-07-06T12:44:46;9.05;;;7.50;;
69523;SDS011;56723;42.694;23.286;2022-07-06T12:47:21;6.90;;;6.30;;
69523;SDS011;56723;42.694;23.286;2022-07-06T12:50:03;6.97;;;6.38;;
69523;SDS011;56723;42.694;23.286;2022-07-06T12:52:32;9.25;;;5.13;;
69523;SDS011;56723;42.694;23.286;2022-07-06T12:55:00;5.78;;;5.28;;
69523;SDS011;56723;42.694;23.286;2022-07-06T12:57:43;5.95;;;5.35;;
69523;SDS011;56723;42.694;23.286;2022-07-06T13:00:15;5.07;;;4.68;;
69523;SDS011;56723;42.694;23.286;2022-07-06T13:02:45;5.85;;;5.30;;
69523;SDS011;56723;42.694;23.286;2022-07-06T13:05:34;6.35;;;4.95;;
69523;SDS011;56723;42.694;23.286;2022-07-06T13:08:02;5.47;;;4.00;;
69523;SDS011;56723;42.694;23.286;2022-07-06T13:10:29;3.95;;;3.50;;
69523;SDS011;56723;42.694;23.286;2022-07-06T13:12:57;4.40;;;3.30;;
69523;SDS011;56723;42.694;23.286;2022-07-06T13:15:25;3.00;;;2.70;;
69523;SDS011;56723;42.694;23.286;2022-07-06T13:17:52;6.43;;;3.17;;
69523;SDS011;56723;42.694;23.286;2022-07-06T13:20:19;3.50;;;2.88;;
69523;SDS011;56723;42.694;23.286;2022-07-06T13:22:46;4.55;;;3.03;;
69523;SDS011;56723;42.694;23.286;2022-07-06T13:25:13;2.03;;;1.83;;
69523;SDS011;56723;42.694;23.286;2022-07-06T13:27:40;2.63;;;2.20;;
69523;SDS011;56723;42.694;23.286;2022-07-06T13:30:08;2.27;;;1.90;;
69523;SDS011;56723;42.694;23.286;2022-07-06T13:35:03;2.70;;;2.10;;
69523;SDS011;56723;42.694;23.286;2022-07-06T13:37:31;1.67;;;1.58;;
69523;SDS011;56723;42.694;23.286;2022-07-06T13:42:26;3.25;;;1.05;;
69523;SDS011;56723;42.694;23.286;2022-07-06T13:44:53;1.65;;;1.20;;
69523;SDS011;56723;42.694;23.286;2022-07-06T13:47:21;2.85;;;1.40;;
69523;SDS011;56723;42.694;23.286;2022-07-06T13:49:48;2.80;;;1.10;;
69523;SDS011;56723;42.694;23.286;2022-07-06T13:52:16;1.10;;;1.00;;
69523;SDS011;56723;42.694;23.286;2022-07-06T13:54:44;2.72;;;1.33;;
69523;SDS011;56723;42.694;23.286;2022-07-06T13:57:10;2.17;;;1.33;;
69523;SDS011;56723;42.694;23.286;2022-07-06T13:59:37;1.83;;;1.10;;
69523;SDS011;56723;42.694;23.286;2022-07-06T14:02:05;1.48;;;0.77;;
69523;SDS011;56723;42.694;23.286;2022-07-06T14:04:32;1.45;;;0.85;;
69523;SDS011;56723;42.694;23.286;2022-07-06T14:06:59;4.03;;;0.88;;
69523;SDS011;56723;42.694;23.286;2022-07-06T14:09:27;1.95;;;0.80;;
69523;SDS011;56723;42.694;23.286;2022-07-06T14:11:54;2.13;;;0.70;;
69523;SDS011;56723;42.694;23.286;2022-07-06T14:14:21;1.35;;;0.82;;
69523;SDS011;56723;42.694;23.286;2022-07-06T14:16:48;1.48;;;0.75;;
69523;SDS011;56723;42.694;23.286;2022-07-06T14:19:17;1.77;;;0.82;;
69523;SDS011;56723;42.694;23.286;2022-07-06T14:21:47;1.70;;;0.90;;
69523;SDS011;56723;42.694;23.286;2022-07-06T14:24:15;3.27;;;0.87;;
69523;SDS011;56723;42.694;23.286;2022-07-06T14:26:42;1.95;;;0.50;;
69523;SDS011;56723;42.694;23.286;2022-07-06T14:29:09;2.55;;;0.93;;
69523;SDS011;56723;42.694;23.286;2022-07-06T14:31:36;1.27;;;0.88;;
69523;SDS011;56723;42.694;23.286;2022-07-06T14:34:03;1.63;;;0.60;;
69523;SDS011;56723;42.694;23.286;2022-07-06T14:36:30;2.08;;;1.02;;
69523;SDS011;56723;42.694;23.286;2022-07-06T14:38:57;2.38;;;1.08;;
69523;SDS011;56723;42.694;23.286;2022-07-06T14:41:24;1.73;;;0.70;;
69523;SDS011;56723;42.694;23.286;2022-07-06T14:43:51;2.17;;;0.50;;
69523;SDS011;56723;42.694;23.286;2022-07-06T14:46:18;4.53;;;0.75;;
69523;SDS011;56723;42.694;23.286;2022-07-06T14:48:46;1.67;;;0.60;;
69523;SDS011;56723;42.694;23.286;2022-07-06T14:51:13;2.70;;;1.00;;
69523;SDS011;56723;42.694;23.286;2022-07-06T14:53:40;2.70;;;0.63;;
69523;SDS011;56723;42.694;23.286;2022-07-06T14:56:08;2.25;;;0.85;;